createdAt,value
2018-07-21T00:00:18.867Z,47.60
2018-07-21T00:02:47.014Z,47.20
2018-07-21T00:05:15.159Z,47.10
2018-07-21T00:07:43.319Z,47.50
2018-07-21T00:10:11.449Z,48.20
2018-07-21T00:12:39.643Z,49.10
2018-07-21T00:15:07.785Z,49.50
2018-07-21T00:17:35.926Z,49.90
2018-07-21T00:20:04.465Z,50.10
2018-07-21T00:22:32.609Z,50.40
2018-07-21T00:25:00.868Z,51.30
2018-07-21T00:27:29.073Z,50.90
2018-07-21T00:29:57.210Z,50.80
2018-07-21T00:32:25.358Z,51.70
2018-07-21T00:34:53.509Z,51.80
2018-07-21T00:37:21.651Z,52.10
2018-07-21T00:39:49.961Z,52.20
2018-07-21T00:42:18.104Z,52.60
2018-07-21T00:44:46.242Z,53.00
2018-07-21T00:47:14.397Z,52.80
2018-07-21T00:49:42.540Z,52.50
2018-07-21T00:52:10.692Z,52.00
2018-07-21T00:54:38.837Z,51.70
2018-07-21T00:57:06.987Z,51.60
2018-07-21T00:59:35.124Z,51.80
2018-07-21T01:02:03.276Z,51.80
2018-07-21T01:04:31.415Z,52.30
2018-07-21T01:06:59.548Z,52.60
2018-07-21T01:09:27.682Z,52.70
2018-07-21T01:11:55.822Z,52.70
2018-07-21T01:14:23.948Z,52.70
2018-07-21T01:16:52.094Z,53.00
2018-07-21T01:19:20.283Z,53.20
2018-07-21T01:21:48.413Z,53.30
2018-07-21T01:24:16.538Z,53.10
2018-07-21T01:26:44.671Z,53.00
2018-07-21T01:29:12.812Z,52.70
2018-07-21T01:31:40.938Z,52.70
2018-07-21T01:34:09.073Z,52.60
2018-07-21T01:36:37.198Z,52.70
2018-07-21T01:39:07.809Z,52.70
2018-07-21T01:41:35.960Z,52.70
2018-07-21T01:44:04.114Z,52.70
2018-07-21T01:46:32.246Z,52.60
2018-07-21T01:49:00.620Z,52.50
2018-07-21T01:51:28.790Z,52.70
2018-07-21T01:53:56.957Z,52.60
2018-07-21T01:56:25.089Z,53.40
2018-07-21T01:58:53.218Z,52.70
2018-07-21T02:01:21.360Z,52.70
2018-07-21T02:03:49.617Z,53.40
2018-07-21T02:06:18.023Z,52.80
2018-07-21T02:08:46.168Z,53.10
2018-07-21T02:11:14.303Z,53.20
2018-07-21T02:13:43.068Z,53.20
2018-07-21T02:16:11.201Z,53.30
2018-07-21T02:18:39.369Z,54.00
2018-07-21T02:21:07.618Z,53.40
2018-07-21T02:26:03.727Z,53.60
2018-07-21T02:28:31.881Z,53.70
2018-07-21T02:31:00.124Z,53.60
2018-07-21T02:33:28.263Z,53.90
2018-07-21T02:35:56.405Z,54.00
2018-07-21T02:38:24.567Z,54.10
2018-07-21T02:40:52.700Z,54.30
2018-07-21T02:43:20.846Z,54.60
2018-07-21T02:45:48.992Z,54.80
2018-07-21T02:48:17.143Z,54.90
2018-07-21T02:50:45.262Z,54.90
2018-07-21T02:53:13.414Z,55.00
2018-07-21T02:55:41.547Z,55.00
2018-07-21T02:58:09.674Z,54.80
2018-07-21T03:00:37.814Z,54.80
2018-07-21T03:03:05.954Z,54.90
2018-07-21T03:05:34.074Z,54.80
2018-07-21T03:08:02.226Z,54.80
2018-07-21T03:10:30.372Z,54.80
2018-07-21T03:12:58.644Z,54.80
2018-07-21T03:15:26.783Z,54.70
2018-07-21T03:17:54.922Z,54.80
2018-07-21T03:20:23.041Z,54.90
2018-07-21T03:22:51.175Z,55.00
2018-07-21T03:25:19.319Z,55.80
2018-07-21T03:27:47.459Z,55.20
2018-07-21T03:30:15.593Z,55.20
2018-07-21T03:32:43.751Z,55.30
2018-07-21T03:35:11.887Z,55.30
2018-07-21T03:37:40.011Z,55.30
2018-07-21T03:40:08.146Z,55.90
2018-07-21T03:42:36.287Z,55.20
2018-07-21T03:45:04.714Z,55.00
2018-07-21T03:47:32.842Z,55.00
2018-07-21T03:50:00.992Z,55.20
2018-07-21T03:52:29.096Z,55.30
2018-07-21T03:54:57.248Z,56.10
2018-07-21T03:57:25.388Z,55.50
2018-07-21T03:59:53.512Z,55.50
2018-07-21T04:02:21.658Z,55.60
2018-07-21T04:04:49.820Z,55.40
2018-07-21T04:07:17.940Z,55.50
2018-07-21T04:09:46.093Z,55.60
2018-07-21T04:12:14.225Z,55.70
2018-07-21T04:14:42.361Z,55.80
2018-07-21T04:17:16.400Z,55.80
2018-07-21T04:19:44.537Z,55.80
2018-07-21T04:22:12.675Z,55.70
2018-07-21T04:24:40.818Z,55.80
2018-07-21T04:27:08.984Z,56.00
2018-07-21T04:29:37.118Z,56.10
2018-07-21T04:32:05.257Z,56.30
2018-07-21T04:34:33.385Z,56.40
2018-07-21T04:37:01.512Z,56.30
2018-07-21T04:39:29.646Z,56.40
2018-07-21T04:41:57.784Z,56.60
2018-07-21T04:44:25.929Z,56.80
2018-07-21T04:46:54.054Z,56.90
2018-07-21T04:49:22.199Z,57.10
2018-07-21T04:51:50.326Z,57.20
2018-07-21T04:54:18.509Z,57.10
2018-07-21T04:56:46.631Z,57.10
2018-07-21T04:59:15.321Z,57.20
2018-07-21T05:01:43.471Z,57.30
2018-07-21T05:04:11.668Z,57.50
2018-07-21T05:06:39.849Z,57.50
2018-07-21T05:09:09.542Z,57.60
2018-07-21T05:11:38.128Z,57.70
2018-07-21T05:14:07.122Z,57.70
2018-07-21T05:16:35.492Z,57.90
2018-07-21T05:19:03.733Z,58.20
2018-07-21T05:21:31.886Z,58.40
2018-07-21T05:24:00.318Z,58.50
2018-07-21T05:26:28.462Z,58.70
2018-07-21T05:28:56.622Z,59.00
2018-07-21T05:31:24.757Z,59.20
2018-07-21T05:33:52.898Z,59.40
2018-07-21T05:36:21.401Z,59.30
2018-07-21T05:38:49.578Z,59.40
2018-07-21T05:41:17.821Z,59.30
2018-07-21T05:43:45.971Z,59.30
2018-07-21T05:46:14.112Z,59.30
2018-07-21T05:48:42.235Z,59.30
2018-07-21T05:51:10.449Z,59.50
2018-07-21T05:53:38.570Z,59.60
2018-07-21T05:56:06.740Z,59.60
2018-07-21T05:58:34.861Z,59.90
2018-07-21T06:01:03.005Z,60.00
2018-07-21T06:03:31.138Z,60.80
2018-07-21T06:05:59.286Z,60.20
2018-07-21T06:08:27.422Z,60.50
2018-07-21T06:10:55.565Z,61.10
2018-07-21T06:13:23.703Z,60.80
2018-07-21T06:15:51.854Z,60.20
2018-07-21T06:18:19.993Z,60.10
2018-07-21T06:20:48.134Z,60.30
2018-07-21T06:23:16.325Z,60.40
2018-07-21T06:25:44.468Z,60.40
2018-07-21T06:28:12.647Z,60.30
2018-07-21T06:30:40.832Z,61.20
2018-07-21T06:33:08.987Z,60.00
2018-07-21T06:35:37.197Z,60.00
2018-07-21T06:38:05.365Z,60.20
2018-07-21T06:43:01.477Z,59.50
2018-07-21T06:45:29.614Z,59.20
2018-07-21T06:47:57.767Z,59.20
2018-07-21T06:50:25.973Z,59.60
2018-07-21T06:52:54.225Z,59.60
2018-07-21T06:55:22.342Z,59.60
2018-07-21T06:57:50.498Z,59.80
2018-07-21T07:00:18.644Z,59.50
2018-07-21T07:02:46.807Z,59.20
2018-07-21T07:05:15.029Z,59.10
2018-07-21T07:07:43.191Z,59.20
2018-07-21T07:10:11.377Z,59.10
2018-07-21T07:12:39.672Z,59.60
2018-07-21T07:15:07.895Z,58.80
2018-07-21T07:17:36.030Z,58.50
2018-07-21T07:20:04.642Z,58.30
2018-07-21T07:22:32.802Z,58.30
2018-07-21T07:25:01.061Z,58.20
2018-07-21T07:27:29.231Z,58.20
2018-07-21T07:29:57.348Z,58.50
2018-07-21T07:32:25.499Z,58.60
2018-07-21T07:34:53.641Z,58.60
2018-07-21T07:37:21.957Z,58.20
2018-07-21T07:39:50.135Z,58.00
2018-07-21T07:42:18.295Z,57.70
2018-07-21T07:44:46.450Z,57.40
2018-07-21T07:47:14.646Z,57.30
2018-07-21T07:49:42.812Z,57.20
2018-07-21T07:52:11.281Z,57.30
2018-07-21T07:54:39.522Z,57.20
2018-07-21T07:57:07.719Z,57.00
2018-07-21T07:59:35.859Z,56.80
2018-07-21T08:02:09.126Z,57.00
2018-07-21T08:04:37.454Z,56.70
2018-07-21T08:07:05.638Z,56.20
2018-07-21T08:12:01.798Z,56.00
2018-07-21T08:16:58.030Z,55.90
2018-07-21T08:19:26.186Z,55.60
2018-07-21T08:21:54.328Z,55.10
2018-07-21T08:24:22.487Z,54.60
2018-07-21T08:26:54.198Z,54.70
2018-07-21T08:29:22.422Z,54.90
2018-07-21T08:31:50.561Z,55.20
2018-07-21T08:34:18.723Z,55.20
2018-07-21T08:36:46.897Z,55.10
2018-07-21T08:39:15.062Z,55.00
2018-07-21T08:41:43.206Z,54.80
2018-07-21T08:44:11.369Z,54.60
2018-07-21T08:46:39.529Z,54.60
2018-07-21T08:49:07.707Z,54.70
2018-07-21T08:51:35.850Z,54.50
2018-07-21T08:54:04.010Z,54.50
2018-07-21T08:56:32.166Z,54.30
2018-07-21T08:59:00.338Z,54.00
2018-07-21T09:01:28.506Z,54.10
2018-07-21T09:03:56.657Z,54.30
2018-07-21T09:06:24.799Z,54.30
2018-07-21T09:08:53.031Z,54.50
2018-07-21T09:11:21.215Z,55.20
2018-07-21T09:13:49.468Z,54.70
2018-07-21T09:16:17.627Z,54.60
2018-07-21T09:18:45.811Z,54.70
2018-07-21T09:21:13.956Z,54.90
2018-07-21T09:23:42.101Z,55.10
2018-07-21T09:26:10.241Z,55.20
2018-07-21T09:28:38.393Z,56.00
2018-07-21T09:31:06.538Z,55.00
2018-07-21T09:33:34.691Z,54.90
2018-07-21T09:36:02.857Z,54.90
2018-07-21T09:38:31.002Z,54.70
2018-07-21T09:41:00.546Z,54.60
2018-07-21T09:43:28.802Z,54.60
2018-07-21T09:45:56.945Z,54.30
2018-07-21T09:48:25.120Z,54.10
2018-07-21T09:50:54.016Z,54.50
2018-07-21T09:53:22.179Z,53.60
2018-07-21T09:55:50.359Z,53.60
2018-07-21T09:58:18.758Z,53.50
2018-07-21T10:00:52.949Z,53.00
2018-07-21T10:03:21.114Z,52.40
2018-07-21T10:05:49.337Z,52.20
2018-07-21T10:08:17.487Z,52.20
2018-07-21T10:10:46.503Z,52.20
2018-07-21T10:13:14.650Z,51.90
2018-07-21T10:15:42.792Z,51.70
2018-07-21T10:18:10.938Z,51.40
2018-07-21T10:20:39.098Z,50.90
2018-07-21T10:23:07.238Z,51.00
2018-07-21T10:25:40.898Z,50.10
2018-07-21T10:28:14.456Z,49.70
2018-07-21T10:30:42.516Z,49.50
2018-07-21T10:33:10.714Z,48.90
2018-07-21T10:35:38.858Z,48.30
2018-07-21T10:38:07.214Z,48.20
2018-07-21T10:40:35.416Z,48.40
2018-07-21T10:43:03.607Z,48.40
2018-07-21T10:45:31.774Z,48.60
2018-07-21T10:47:59.910Z,48.90
2018-07-21T10:50:28.049Z,48.90
2018-07-21T10:52:56.216Z,48.60
2018-07-21T10:55:24.350Z,48.10
2018-07-21T10:57:52.839Z,48.20
2018-07-21T11:00:20.984Z,48.30
2018-07-21T11:02:49.106Z,48.30
2018-07-21T11:05:17.262Z,48.90
2018-07-21T11:07:45.397Z,48.80
2018-07-21T11:10:13.546Z,49.10
2018-07-21T11:12:41.682Z,48.80
2018-07-21T11:15:09.867Z,48.40
2018-07-21T11:17:38.301Z,47.90
2018-07-21T11:20:06.834Z,47.60
2018-07-21T11:22:35.341Z,48.00
2018-07-21T11:25:03.522Z,49.00
2018-07-21T11:27:31.666Z,49.20
2018-07-21T11:32:27.697Z,49.90
2018-07-21T11:34:55.843Z,49.00
2018-07-21T11:37:23.973Z,48.50
2018-07-21T11:39:52.535Z,48.40
2018-07-21T11:42:20.763Z,48.40
2018-07-21T11:44:48.895Z,48.40
2018-07-21T11:47:17.027Z,49.00
2018-07-21T11:49:45.181Z,49.20
2018-07-21T11:52:13.319Z,49.00
2018-07-21T11:54:41.459Z,48.40
2018-07-21T11:57:09.591Z,48.50
2018-07-21T11:59:37.726Z,48.00
2018-07-21T12:02:05.914Z,48.40
2018-07-21T12:04:34.079Z,47.80
2018-07-21T12:07:02.255Z,47.00
2018-07-21T12:09:30.508Z,47.30
2018-07-21T12:11:58.656Z,46.30
2018-07-21T12:14:26.818Z,46.10
2018-07-21T12:16:54.962Z,45.90
2018-07-21T12:19:23.110Z,46.30
2018-07-21T12:21:51.250Z,46.10
2018-07-21T12:24:19.399Z,46.30
2018-07-21T12:26:47.539Z,45.90
2018-07-21T12:29:15.695Z,45.10
2018-07-21T12:31:43.827Z,45.10
2018-07-21T12:34:12.576Z,45.90
2018-07-21T12:36:40.716Z,45.40
2018-07-21T12:39:09.926Z,45.40
2018-07-21T12:41:38.610Z,45.10
2018-07-21T12:44:06.748Z,45.30
2018-07-21T12:46:34.907Z,45.80
2018-07-21T12:49:03.239Z,45.70
2018-07-21T12:51:31.818Z,45.60
2018-07-21T12:53:59.949Z,45.90
2018-07-21T12:56:28.099Z,45.10
2018-07-21T12:58:56.233Z,45.30
2018-07-21T13:01:24.399Z,45.50
2018-07-21T13:03:52.547Z,45.30
2018-07-21T13:06:20.714Z,44.90
2018-07-21T13:08:48.875Z,45.10
2018-07-21T13:11:17.110Z,45.50
2018-07-21T13:13:45.315Z,45.80
2018-07-21T13:16:13.459Z,45.90
2018-07-21T13:18:41.591Z,46.10
2018-07-21T13:21:09.741Z,46.70
2018-07-21T13:23:37.946Z,46.20
2018-07-21T13:26:06.135Z,46.20
2018-07-21T13:28:34.265Z,46.30
2018-07-21T13:31:02.422Z,46.30
2018-07-21T13:33:30.615Z,46.70
2018-07-21T13:35:58.759Z,46.80
2018-07-21T13:38:26.902Z,46.70
2018-07-21T13:40:55.055Z,46.90
2018-07-21T13:43:23.552Z,46.70
2018-07-21T13:45:51.709Z,46.30
2018-07-21T13:48:19.842Z,46.20
2018-07-21T13:50:48.802Z,46.10
2018-07-21T13:53:16.954Z,46.00
2018-07-21T13:55:45.099Z,45.50
2018-07-21T13:58:13.259Z,45.60
2018-07-21T14:00:41.529Z,46.20
2018-07-21T14:03:09.718Z,46.60
2018-07-21T14:05:37.890Z,46.60
2018-07-21T14:08:06.056Z,46.30
2018-07-21T14:10:34.242Z,46.10
2018-07-21T14:13:02.366Z,46.30
2018-07-21T14:15:30.545Z,46.40
2018-07-21T14:17:58.691Z,46.30
2018-07-21T14:20:26.839Z,46.40
2018-07-21T14:22:54.983Z,46.30
2018-07-21T14:25:23.130Z,46.00
2018-07-21T14:27:51.278Z,45.70
2018-07-21T14:30:19.422Z,45.70
2018-07-21T14:32:47.587Z,45.70
2018-07-21T14:35:15.789Z,46.00
2018-07-21T14:37:43.953Z,46.20
2018-07-21T14:40:12.194Z,46.10
2018-07-21T14:42:40.353Z,46.10
2018-07-21T14:45:08.495Z,45.80
2018-07-21T14:47:36.696Z,45.80
2018-07-21T14:50:05.175Z,45.60
2018-07-21T14:52:33.311Z,45.80
2018-07-21T14:55:01.587Z,45.60
2018-07-21T14:57:29.609Z,45.60
2018-07-21T14:59:57.750Z,45.60
2018-07-21T15:02:25.911Z,45.40
2018-07-21T15:04:54.053Z,45.10
2018-07-21T15:07:22.239Z,44.90
2018-07-21T15:09:50.375Z,44.80
2018-07-21T15:12:18.598Z,45.10
2018-07-21T15:14:46.662Z,44.90
2018-07-21T15:17:14.912Z,44.70
2018-07-21T15:19:43.154Z,44.70
2018-07-21T15:22:11.335Z,44.70
2018-07-21T15:24:39.525Z,44.60
2018-07-21T15:27:07.665Z,44.40
2018-07-21T15:29:35.861Z,44.30
2018-07-21T15:32:03.990Z,44.10
2018-07-21T15:34:32.142Z,44.10
2018-07-21T15:37:00.329Z,44.10
2018-07-21T15:39:28.479Z,44.30
2018-07-21T15:41:56.645Z,44.70
2018-07-21T15:44:24.818Z,45.20
2018-07-21T15:46:52.966Z,46.10
2018-07-21T15:49:21.105Z,46.80
2018-07-21T15:51:49.262Z,47.70
2018-07-21T15:54:17.397Z,48.60
2018-07-21T15:59:13.459Z,51.90
2018-07-21T16:01:41.606Z,53.20
2018-07-21T16:04:09.751Z,55.00
2018-07-21T16:06:37.926Z,56.40
2018-07-21T16:09:08.369Z,57.00
2018-07-21T16:11:36.523Z,57.80
2018-07-21T16:14:04.687Z,57.80
2018-07-21T16:16:32.850Z,58.50
2018-07-21T16:19:01.045Z,59.60
2018-07-21T16:21:29.173Z,60.30
2018-07-21T16:23:57.382Z,61.10
2018-07-21T16:26:25.542Z,61.50
2018-07-21T16:28:53.735Z,62.10
2018-07-21T16:31:21.890Z,62.30
2018-07-21T16:33:50.067Z,63.40
2018-07-21T16:36:18.594Z,64.60
2018-07-21T16:38:46.978Z,64.80
2018-07-21T16:41:15.129Z,64.90
2018-07-21T16:43:43.374Z,65.40
2018-07-21T16:46:11.547Z,66.10
2018-07-21T16:48:39.734Z,67.80
2018-07-21T16:51:08.141Z,67.30
2018-07-21T16:53:36.306Z,67.40
2018-07-21T16:56:04.559Z,67.70
2018-07-21T16:58:32.742Z,69.20
2018-07-21T17:01:00.884Z,70.10
2018-07-21T17:03:29.045Z,70.80
2018-07-21T17:05:58.070Z,71.70
2018-07-21T17:08:26.357Z,72.20
2018-07-21T17:10:54.457Z,72.80
2018-07-21T17:13:22.634Z,73.40
2018-07-21T17:15:50.954Z,73.50
2018-07-21T17:18:19.165Z,73.90
2018-07-21T17:20:47.355Z,73.40
2018-07-21T17:23:15.521Z,72.10
2018-07-21T17:25:43.755Z,71.20
2018-07-21T17:28:11.897Z,71.00
2018-07-21T17:30:40.062Z,70.80
2018-07-21T17:33:08.272Z,71.20
2018-07-21T17:35:36.413Z,72.00
2018-07-21T17:38:05.015Z,73.50
2018-07-21T17:40:33.167Z,73.20
2018-07-21T17:43:01.346Z,74.00
2018-07-21T17:45:29.498Z,75.00
2018-07-21T17:47:57.646Z,74.20
2018-07-21T17:50:25.813Z,74.30
2018-07-21T17:52:53.942Z,74.70
2018-07-21T17:55:22.094Z,75.40
2018-07-21T17:57:50.275Z,75.90
2018-07-21T18:00:18.436Z,76.00
2018-07-21T18:02:46.613Z,76.70
2018-07-21T18:05:14.765Z,76.10
2018-07-21T18:07:42.909Z,75.70
2018-07-21T18:10:11.053Z,75.50
2018-07-21T18:15:07.111Z,75.70
2018-07-21T18:17:35.248Z,75.70
2018-07-21T18:20:03.447Z,75.80
2018-07-21T18:24:59.513Z,76.00
2018-07-21T18:27:27.651Z,75.20
2018-07-21T18:29:55.910Z,74.80
2018-07-21T18:32:24.047Z,74.80
2018-07-21T18:34:52.204Z,75.00
2018-07-21T18:37:20.359Z,75.10
2018-07-21T18:39:48.629Z,75.40
2018-07-21T18:42:16.702Z,76.00
2018-07-21T18:44:44.892Z,76.00
2018-07-21T18:47:13.003Z,76.10
2018-07-21T18:49:41.150Z,76.30
2018-07-21T18:52:09.318Z,76.20
2018-07-21T18:54:37.446Z,76.20
2018-07-21T18:57:05.569Z,76.00
2018-07-21T18:59:33.706Z,75.90
2018-07-21T19:02:01.866Z,75.90
2018-07-21T19:04:30.102Z,75.90
2018-07-21T19:06:58.181Z,75.80
2018-07-21T19:09:26.334Z,75.70
2018-07-21T19:11:59.806Z,75.90
2018-07-21T19:14:27.967Z,76.20
2018-07-21T19:16:56.115Z,75.80
2018-07-21T19:19:27.583Z,75.60
2018-07-21T19:21:55.714Z,76.00
2018-07-21T19:24:23.904Z,76.20
2018-07-21T19:26:57.494Z,76.00
2018-07-21T19:29:25.683Z,75.70
2018-07-21T19:31:59.302Z,75.80
2018-07-21T19:34:27.343Z,76.70
2018-07-21T19:36:55.494Z,75.70
2018-07-21T19:39:23.674Z,75.70
2018-07-21T19:41:57.269Z,75.70
2018-07-21T19:44:25.409Z,75.80
2018-07-21T19:46:53.552Z,75.80
2018-07-21T19:49:21.701Z,76.00
2018-07-21T19:51:49.856Z,76.10
2018-07-21T19:54:17.999Z,76.10
2018-07-21T19:56:46.136Z,76.10
2018-07-21T19:59:14.293Z,76.20
2018-07-21T20:01:42.467Z,76.00
2018-07-21T20:04:10.739Z,76.20
2018-07-21T20:06:38.786Z,76.40
2018-07-21T20:09:07.536Z,76.70
2018-07-21T20:11:35.682Z,77.10
2018-07-21T20:14:03.846Z,77.40
2018-07-21T20:16:31.970Z,77.70
2018-07-21T20:19:00.121Z,78.10
2018-07-21T20:21:28.287Z,78.40
2018-07-21T20:23:56.442Z,78.30
2018-07-21T20:26:24.591Z,78.30
2018-07-21T20:28:52.746Z,78.20
2018-07-21T20:31:20.903Z,78.30
2018-07-21T20:33:49.067Z,78.50
2018-07-21T20:36:17.201Z,78.40
2018-07-21T20:38:45.333Z,78.10
2018-07-21T20:41:13.483Z,78.20
2018-07-21T20:43:41.675Z,78.10
2018-07-21T20:46:09.778Z,77.90
2018-07-21T20:48:37.907Z,78.40
2018-07-21T20:51:06.054Z,77.60
2018-07-21T20:53:34.190Z,77.40
2018-07-21T20:56:02.338Z,77.20
2018-07-21T20:58:30.498Z,77.20
2018-07-21T21:00:58.631Z,76.80
2018-07-21T21:03:26.779Z,76.50
2018-07-21T21:05:55.065Z,76.50
2018-07-21T21:08:23.198Z,76.70
2018-07-21T21:10:51.335Z,76.70
2018-07-21T21:13:19.499Z,76.80
2018-07-21T21:15:47.670Z,76.80
2018-07-21T21:18:15.801Z,76.80
2018-07-21T21:23:11.843Z,76.80
2018-07-21T21:25:40.003Z,76.70
2018-07-21T21:28:08.180Z,76.70
2018-07-21T21:30:36.315Z,76.80
2018-07-21T21:33:04.445Z,77.00
2018-07-21T21:35:32.601Z,77.20
2018-07-21T21:38:00.731Z,77.30
2018-07-21T21:40:28.890Z,77.10
2018-07-21T21:42:57.018Z,77.30
2018-07-21T21:45:25.158Z,77.50
2018-07-21T21:47:53.301Z,77.70
2018-07-21T21:50:21.434Z,77.90
2018-07-21T21:52:49.603Z,78.00
2018-07-21T21:55:17.719Z,78.20
2018-07-21T21:57:45.896Z,78.30
2018-07-21T22:00:14.031Z,78.30
2018-07-21T22:02:42.286Z,78.10
2018-07-21T22:05:11.291Z,78.00
2018-07-21T22:07:39.426Z,77.80
2018-07-21T22:10:07.613Z,77.70
2018-07-21T22:12:36.231Z,77.50
2018-07-21T22:15:09.503Z,77.50
2018-07-21T22:17:37.673Z,77.60
2018-07-21T22:20:06.469Z,77.70
2018-07-21T22:22:34.631Z,77.80
2018-07-21T22:25:02.791Z,78.00
2018-07-21T22:27:30.941Z,78.00
2018-07-21T22:29:59.123Z,78.10
2018-07-21T22:32:27.288Z,78.20
2018-07-21T22:34:55.421Z,78.30
2018-07-21T22:37:23.554Z,78.40
2018-07-21T22:39:51.694Z,78.50
2018-07-21T22:42:19.849Z,78.60
2018-07-21T22:44:47.994Z,78.80
2018-07-21T22:47:16.196Z,78.90
2018-07-21T22:49:44.351Z,79.00
2018-07-21T22:52:12.594Z,79.20
2018-07-21T22:54:40.729Z,79.40
2018-07-21T22:57:08.878Z,79.40
2018-07-21T22:59:37.019Z,79.50
2018-07-21T23:02:05.281Z,79.60
2018-07-21T23:04:33.455Z,79.40
2018-07-21T23:07:01.622Z,79.40
2018-07-21T23:09:29.805Z,79.20
2018-07-21T23:11:57.955Z,79.10
2018-07-21T23:14:26.094Z,79.10
2018-07-21T23:16:54.254Z,79.10
2018-07-21T23:19:22.409Z,79.00
2018-07-21T23:21:50.581Z,78.90
2018-07-21T23:24:18.750Z,78.70
2018-07-21T23:26:46.931Z,78.40
2018-07-21T23:29:15.090Z,78.10
2018-07-21T23:31:43.222Z,78.10
2018-07-21T23:34:11.379Z,77.80
2018-07-21T23:36:39.526Z,77.80
2018-07-21T23:39:08.958Z,77.60
2018-07-21T23:41:37.109Z,77.40
2018-07-21T23:44:05.286Z,77.30
2018-07-21T23:46:33.430Z,77.40
2018-07-21T23:49:01.574Z,77.40
2018-07-21T23:51:29.702Z,77.30
2018-07-21T23:53:57.859Z,77.30
2018-07-21T23:56:25.999Z,77.20
2018-07-21T23:58:54.148Z,77.20
